sensor_id;sensor_type;location;lat;lon;timestamp;P1;durP1;ratioP1;P2;durP2;ratioP2
7377;SDS011;3730;50.856;12.776;2022-09-01T00:02:03;4.43;;;2.70;;
7377;SDS011;3730;50.856;12.776;2022-09-01T00:04:32;5.73;;;2.50;;
7377;SDS011;3730;50.856;12.776;2022-09-01T00:07:00;3.30;;;3.00;;
7377;SDS011;3730;50.856;12.776;2022-09-01T00:09:26;3.53;;;3.03;;
7377;SDS011;3730;50.856;12.776;2022-09-01T00:11:53;2.80;;;2.50;;
7377;SDS011;3730;50.856;12.776;2022-09-01T00:14:20;3.40;;;2.60;;
7377;SDS011;3730;50.856;12.776;2022-09-01T00:16:46;2.50;;;2.30;;
7377;SDS011;3730;50.856;12.776;2022-09-01T00:19:12;2.70;;;2.50;;
7377;SDS011;3730;50.856;12.776;2022-09-01T00:21:39;2.90;;;2.70;;
7377;SDS011;3730;50.856;12.776;2022-09-01T00:24:07;3.30;;;2.60;;
7377;SDS011;3730;50.856;12.776;2022-09-01T00:26:33;4.17;;;3.30;;
7377;SDS011;3730;50.856;12.776;2022-09-01T00:28:59;5.00;;;3.00;;
7377;SDS011;3730;50.856;12.776;2022-09-01T00:31:25;3.00;;;2.80;;
7377;SDS011;3730;50.856;12.776;2022-09-01T00:33:51;5.23;;;3.73;;
7377;SDS011;3730;50.856;12.776;2022-09-01T00:36:18;3.30;;;3.00;;
7377;SDS011;3730;50.856;12.776;2022-09-01T00:38:44;3.10;;;2.90;;
7377;SDS011;3730;50.856;12.776;2022-09-01T00:41:10;3.70;;;3.40;;
7377;SDS011;3730;50.856;12.776;2022-09-01T00:46:04;4.30;;;3.67;;
7377;SDS011;3730;50.856;12.776;2022-09-01T00:48:30;3.80;;;3.50;;
7377;SDS011;3730;50.856;12.776;2022-09-01T00:50:56;4.83;;;3.40;;
7377;SDS011;3730;50.856;12.776;2022-09-01T00:53:22;3.40;;;3.10;;
7377;SDS011;3730;50.856;12.776;2022-09-01T00:55:48;4.60;;;3.43;;
7377;SDS011;3730;50.856;12.776;2022-09-01T00:58:15;3.70;;;3.40;;
7377;SDS011;3730;50.856;12.776;2022-09-01T01:00:41;4.17;;;3.83;;
7377;SDS011;3730;50.856;12.776;2022-09-01T01:03:08;4.00;;;3.70;;
7377;SDS011;3730;50.856;12.776;2022-09-01T01:05:36;4.00;;;3.70;;
7377;SDS011;3730;50.856;12.776;2022-09-01T01:08:04;3.83;;;3.40;;
7377;SDS011;3730;50.856;12.776;2022-09-01T01:10:32;4.37;;;4.07;;
7377;SDS011;3730;50.856;12.776;2022-09-01T01:12:59;5.60;;;4.40;;
7377;SDS011;3730;50.856;12.776;2022-09-01T01:15:27;4.87;;;4.07;;
7377;SDS011;3730;50.856;12.776;2022-09-01T01:17:54;3.80;;;3.50;;
7377;SDS011;3730;50.856;12.776;2022-09-01T01:20:21;4.67;;;4.27;;
7377;SDS011;3730;50.856;12.776;2022-09-01T01:23:15;5.27;;;4.77;;
7377;SDS011;3730;50.856;12.776;2022-09-01T01:25:47;5.60;;;4.93;;
7377;SDS011;3730;50.856;12.776;2022-09-01T01:28:18;4.60;;;4.20;;
7377;SDS011;3730;50.856;12.776;2022-09-01T01:30:53;5.37;;;4.87;;
7377;SDS011;3730;50.856;12.776;2022-09-01T01:33:24;6.77;;;5.10;;
7377;SDS011;3730;50.856;12.776;2022-09-01T01:35:51;5.80;;;5.30;;
7377;SDS011;3730;50.856;12.776;2022-09-01T01:38:20;5.50;;;5.00;;
7377;SDS011;3730;50.856;12.776;2022-09-01T01:40:46;5.40;;;4.60;;
7377;SDS011;3730;50.856;12.776;2022-09-01T01:43:13;6.53;;;5.10;;
7377;SDS011;3730;50.856;12.776;2022-09-01T01:45:44;9.33;;;5.57;;
7377;SDS011;3730;50.856;12.776;2022-09-01T01:48:11;4.90;;;4.40;;
7377;SDS011;3730;50.856;12.776;2022-09-01T01:50:37;5.90;;;4.03;;
7377;SDS011;3730;50.856;12.776;2022-09-01T01:53:05;9.37;;;4.30;;
7377;SDS011;3730;50.856;12.776;2022-09-01T01:55:32;4.30;;;3.80;;
7377;SDS011;3730;50.856;12.776;2022-09-01T01:57:58;4.67;;;3.70;;
7377;SDS011;3730;50.856;12.776;2022-09-01T02:00:26;4.03;;;3.63;;
7377;SDS011;3730;50.856;12.776;2022-09-01T02:02:53;4.97;;;4.57;;
7377;SDS011;3730;50.856;12.776;2022-09-01T02:05:24;5.70;;;4.30;;
7377;SDS011;3730;50.856;12.776;2022-09-01T02:07:55;5.07;;;4.57;;
7377;SDS011;3730;50.856;12.776;2022-09-01T02:10:27;5.27;;;4.77;;
7377;SDS011;3730;50.856;12.776;2022-09-01T02:12:55;6.90;;;4.60;;
7377;SDS011;3730;50.856;12.776;2022-09-01T02:15:28;4.20;;;3.90;;
7377;SDS011;3730;50.856;12.776;2022-09-01T02:17:54;4.97;;;4.17;;
7377;SDS011;3730;50.856;12.776;2022-09-01T02:20:24;5.43;;;4.87;;
7377;SDS011;3730;50.856;12.776;2022-09-01T02:22:54;4.83;;;4.43;;
7377;SDS011;3730;50.856;12.776;2022-09-01T02:25:20;6.77;;;4.73;;
7377;SDS011;3730;50.856;12.776;2022-09-01T02:27:47;5.43;;;4.90;;
7377;SDS011;3730;50.856;12.776;2022-09-01T02:30:19;5.27;;;4.77;;
7377;SDS011;3730;50.856;12.776;2022-09-01T02:32:50;4.33;;;4.00;;
7377;SDS011;3730;50.856;12.776;2022-09-01T02:35:16;5.33;;;4.83;;
7377;SDS011;3730;50.856;12.776;2022-09-01T02:37:43;5.23;;;4.73;;
7377;SDS011;3730;50.856;12.776;2022-09-01T02:40:13;6.07;;;5.57;;
7377;SDS011;3730;50.856;12.776;2022-09-01T02:42:39;5.87;;;5.37;;
7377;SDS011;3730;50.856;12.776;2022-09-01T02:45:07;6.00;;;5.50;;
7377;SDS011;3730;50.856;12.776;2022-09-01T02:47:36;5.13;;;4.73;;
7377;SDS011;3730;50.856;12.776;2022-09-01T02:50:06;7.40;;;6.00;;
7377;SDS011;3730;50.856;12.776;2022-09-01T02:52:37;7.23;;;6.57;;
7377;SDS011;3730;50.856;12.776;2022-09-01T02:55:05;7.40;;;5.77;;
7377;SDS011;3730;50.856;12.776;2022-09-01T02:57:31;6.80;;;5.47;;
7377;SDS011;3730;50.856;12.776;2022-09-01T02:59:58;7.07;;;5.87;;
7377;SDS011;3730;50.856;12.776;2022-09-01T03:02:24;6.27;;;5.77;;
7377;SDS011;3730;50.856;12.776;2022-09-01T03:04:53;6.57;;;5.97;;
7377;SDS011;3730;50.856;12.776;2022-09-01T03:07:19;6.40;;;5.90;;
7377;SDS011;3730;50.856;12.776;2022-09-01T03:09:48;5.83;;;5.33;;
7377;SDS011;3730;50.856;12.776;2022-09-01T03:12:14;6.80;;;5.43;;
7377;SDS011;3730;50.856;12.776;2022-09-01T03:14:40;5.53;;;5.13;;
7377;SDS011;3730;50.856;12.776;2022-09-01T03:17:06;7.63;;;4.83;;
7377;SDS011;3730;50.856;12.776;2022-09-01T03:19:32;6.13;;;5.47;;
7377;SDS011;3730;50.856;12.776;2022-09-01T03:22:08;6.10;;;5.50;;
7377;SDS011;3730;50.856;12.776;2022-09-01T03:24:34;5.50;;;5.00;;
7377;SDS011;3730;50.856;12.776;2022-09-01T03:27:00;5.30;;;4.80;;
7377;SDS011;3730;50.856;12.776;2022-09-01T03:29:26;5.67;;;5.03;;
7377;SDS011;3730;50.856;12.776;2022-09-01T03:31:52;6.00;;;4.43;;
7377;SDS011;3730;50.856;12.776;2022-09-01T03:34:18;5.13;;;4.73;;
7377;SDS011;3730;50.856;12.776;2022-09-01T03:36:45;5.57;;;5.03;;
7377;SDS011;3730;50.856;12.776;2022-09-01T03:39:15;7.23;;;5.80;;
7377;SDS011;3730;50.856;12.776;2022-09-01T03:41:42;5.40;;;4.63;;
7377;SDS011;3730;50.856;12.776;2022-09-01T03:44:09;6.30;;;5.70;;
7377;SDS011;3730;50.856;12.776;2022-09-01T03:46:40;7.00;;;6.30;;
7377;SDS011;3730;50.856;12.776;2022-09-01T03:49:07;7.13;;;6.23;;
7377;SDS011;3730;50.856;12.776;2022-09-01T03:51:36;5.60;;;5.10;;
7377;SDS011;3730;50.856;12.776;2022-09-01T03:54:03;8.70;;;6.03;;
7377;SDS011;3730;50.856;12.776;2022-09-01T03:56:29;6.90;;;6.30;;
7377;SDS011;3730;50.856;12.776;2022-09-01T03:58:56;6.43;;;5.83;;
7377;SDS011;3730;50.856;12.776;2022-09-01T04:01:24;7.63;;;6.67;;
7377;SDS011;3730;50.856;12.776;2022-09-01T04:03:50;7.17;;;6.57;;
7377;SDS011;3730;50.856;12.776;2022-09-01T04:06:17;7.17;;;6.47;;
7377;SDS011;3730;50.856;12.776;2022-09-01T04:08:43;6.97;;;6.30;;
7377;SDS011;3730;50.856;12.776;2022-09-01T04:11:11;5.67;;;5.17;;
7377;SDS011;3730;50.856;12.776;2022-09-01T04:13:39;5.70;;;5.20;;
7377;SDS011;3730;50.856;12.776;2022-09-01T04:16:05;7.87;;;6.27;;
7377;SDS011;3730;50.856;12.776;2022-09-01T04:18:55;7.33;;;5.73;;
7377;SDS011;3730;50.856;12.776;2022-09-01T04:21:21;7.37;;;5.83;;
7377;SDS011;3730;50.856;12.776;2022-09-01T04:23:47;6.20;;;5.63;;
7377;SDS011;3730;50.856;12.776;2022-09-01T04:26:13;7.07;;;6.40;;
7377;SDS011;3730;50.856;12.776;2022-09-01T04:28:45;7.17;;;5.70;;
7377;SDS011;3730;50.856;12.776;2022-09-01T04:31:16;7.63;;;5.70;;
7377;SDS011;3730;50.856;12.776;2022-09-01T04:33:47;8.23;;;5.83;;
7377;SDS011;3730;50.856;12.776;2022-09-01T04:36:21;6.93;;;5.60;;
7377;SDS011;3730;50.856;12.776;2022-09-01T04:38:50;6.20;;;5.47;;
7377;SDS011;3730;50.856;12.776;2022-09-01T04:41:20;7.77;;;5.60;;
7377;SDS011;3730;50.856;12.776;2022-09-01T04:43:47;7.10;;;5.90;;
7377;SDS011;3730;50.856;12.776;2022-09-01T04:46:16;7.07;;;6.37;;
7377;SDS011;3730;50.856;12.776;2022-09-01T04:48:43;6.67;;;5.90;;
7377;SDS011;3730;50.856;12.776;2022-09-01T04:51:10;6.00;;;5.13;;
7377;SDS011;3730;50.856;12.776;2022-09-01T04:53:37;9.23;;;6.10;;
7377;SDS011;3730;50.856;12.776;2022-09-01T04:56:03;9.33;;;5.40;;
7377;SDS011;3730;50.856;12.776;2022-09-01T04:58:30;7.20;;;5.53;;
7377;SDS011;3730;50.856;12.776;2022-09-01T05:00:58;5.87;;;5.20;;
7377;SDS011;3730;50.856;12.776;2022-09-01T05:03:27;6.20;;;5.60;;
7377;SDS011;3730;50.856;12.776;2022-09-01T05:05:56;5.90;;;5.30;;
7377;SDS011;3730;50.856;12.776;2022-09-01T05:08:25;6.07;;;5.47;;
7377;SDS011;3730;50.856;12.776;2022-09-01T05:10:53;6.30;;;5.70;;
7377;SDS011;3730;50.856;12.776;2022-09-01T05:13:20;6.30;;;5.70;;
7377;SDS011;3730;50.856;12.776;2022-09-01T05:15:57;7.97;;;5.90;;
7377;SDS011;3730;50.856;12.776;2022-09-01T05:18:23;14.37;;;10.87;;
7377;SDS011;3730;50.856;12.776;2022-09-01T05:20:52;7.13;;;6.17;;
7377;SDS011;3730;50.856;12.776;2022-09-01T05:23:18;6.27;;;5.77;;
7377;SDS011;3730;50.856;12.776;2022-09-01T05:25:47;6.10;;;5.53;;
7377;SDS011;3730;50.856;12.776;2022-09-01T05:28:14;13.03;;;6.00;;
7377;SDS011;3730;50.856;12.776;2022-09-01T05:30:42;7.03;;;5.30;;
7377;SDS011;3730;50.856;12.776;2022-09-01T05:33:09;5.60;;;5.10;;
7377;SDS011;3730;50.856;12.776;2022-09-01T05:35:41;7.30;;;6.43;;
7377;SDS011;3730;50.856;12.776;2022-09-01T05:38:09;6.50;;;5.90;;
7377;SDS011;3730;50.856;12.776;2022-09-01T05:40:37;6.03;;;5.53;;
7377;SDS011;3730;50.856;12.776;2022-09-01T05:43:09;7.53;;;5.43;;
7377;SDS011;3730;50.856;12.776;2022-09-01T05:45:38;5.83;;;5.10;;
7377;SDS011;3730;50.856;12.776;2022-09-01T05:48:06;7.63;;;5.30;;
7377;SDS011;3730;50.856;12.776;2022-09-01T05:50:34;7.47;;;5.17;;
7377;SDS011;3730;50.856;12.776;2022-09-01T05:53:02;6.57;;;5.90;;
7377;SDS011;3730;50.856;12.776;2022-09-01T05:55:40;6.63;;;4.87;;
7377;SDS011;3730;50.856;12.776;2022-09-01T05:58:07;5.97;;;5.33;;
7377;SDS011;3730;50.856;12.776;2022-09-01T06:00:37;6.20;;;5.10;;
7377;SDS011;3730;50.856;12.776;2022-09-01T06:03:04;7.27;;;5.67;;
7377;SDS011;3730;50.856;12.776;2022-09-01T06:05:33;6.70;;;5.70;;
7377;SDS011;3730;50.856;12.776;2022-09-01T06:08:00;7.37;;;6.67;;
7377;SDS011;3730;50.856;12.776;2022-09-01T06:10:26;6.33;;;5.73;;
7377;SDS011;3730;50.856;12.776;2022-09-01T06:12:53;6.80;;;5.40;;
7377;SDS011;3730;50.856;12.776;2022-09-01T06:15:20;6.53;;;5.80;;
7377;SDS011;3730;50.856;12.776;2022-09-01T06:17:46;6.17;;;5.57;;
7377;SDS011;3730;50.856;12.776;2022-09-01T06:20:13;5.23;;;4.70;;
7377;SDS011;3730;50.856;12.776;2022-09-01T06:22:42;5.40;;;4.90;;
7377;SDS011;3730;50.856;12.776;2022-09-01T06:25:09;5.30;;;4.77;;
7377;SDS011;3730;50.856;12.776;2022-09-01T06:27:35;6.33;;;5.17;;
7377;SDS011;3730;50.856;12.776;2022-09-01T06:30:06;6.20;;;4.87;;
7377;SDS011;3730;50.856;12.776;2022-09-01T06:32:42;5.60;;;5.03;;
7377;SDS011;3730;50.856;12.776;2022-09-01T06:35:14;5.40;;;4.90;;
7377;SDS011;3730;50.856;12.776;2022-09-01T06:37:42;8.00;;;5.07;;
7377;SDS011;3730;50.856;12.776;2022-09-01T06:40:09;5.17;;;4.67;;
7377;SDS011;3730;50.856;12.776;2022-09-01T06:42:41;5.57;;;4.83;;
7377;SDS011;3730;50.856;12.776;2022-09-01T06:45:09;5.90;;;5.27;;
7377;SDS011;3730;50.856;12.776;2022-09-01T06:47:35;6.03;;;4.90;;
7377;SDS011;3730;50.856;12.776;2022-09-01T06:50:02;5.03;;;4.53;;
7377;SDS011;3730;50.856;12.776;2022-09-01T06:52:28;5.83;;;5.10;;
7377;SDS011;3730;50.856;12.776;2022-09-01T06:54:54;5.33;;;4.63;;
7377;SDS011;3730;50.856;12.776;2022-09-01T06:57:21;8.40;;;5.13;;
7377;SDS011;3730;50.856;12.776;2022-09-01T06:59:47;5.43;;;4.93;;
7377;SDS011;3730;50.856;12.776;2022-09-01T07:02:14;6.93;;;5.30;;
7377;SDS011;3730;50.856;12.776;2022-09-01T07:04:41;6.37;;;5.30;;
7377;SDS011;3730;50.856;12.776;2022-09-01T07:07:08;6.20;;;5.60;;
7377;SDS011;3730;50.856;12.776;2022-09-01T07:09:35;5.80;;;5.30;;
7377;SDS011;3730;50.856;12.776;2022-09-01T07:12:01;6.33;;;5.73;;
7377;SDS011;3730;50.856;12.776;2022-09-01T07:14:28;5.80;;;5.30;;
7377;SDS011;3730;50.856;12.776;2022-09-01T07:16:54;5.53;;;4.50;;
7377;SDS011;3730;50.856;12.776;2022-09-01T07:19:21;4.80;;;4.40;;
7377;SDS011;3730;50.856;12.776;2022-09-01T07:21:47;3.60;;;3.30;;
7377;SDS011;3730;50.856;12.776;2022-09-01T07:24:13;4.87;;;3.90;;
7377;SDS011;3730;50.856;12.776;2022-09-01T07:26:43;4.33;;;4.00;;
7377;SDS011;3730;50.856;12.776;2022-09-01T07:29:13;4.10;;;3.80;;
7377;SDS011;3730;50.856;12.776;2022-09-01T07:31:40;4.37;;;3.97;;
7377;SDS011;3730;50.856;12.776;2022-09-01T07:34:08;4.00;;;3.60;;
7377;SDS011;3730;50.856;12.776;2022-09-01T07:36:36;5.27;;;3.67;;
7377;SDS011;3730;50.856;12.776;2022-09-01T07:39:03;5.60;;;3.83;;
7377;SDS011;3730;50.856;12.776;2022-09-01T07:41:30;3.93;;;3.53;;
7377;SDS011;3730;50.856;12.776;2022-09-01T07:43:59;5.70;;;3.80;;
7377;SDS011;3730;50.856;12.776;2022-09-01T07:46:27;3.80;;;3.50;;
7377;SDS011;3730;50.856;12.776;2022-09-01T07:51:25;4.47;;;3.50;;
7377;SDS011;3730;50.856;12.776;2022-09-01T07:53:51;4.03;;;3.63;;
7377;SDS011;3730;50.856;12.776;2022-09-01T07:56:19;3.77;;;3.47;;
7377;SDS011;3730;50.856;12.776;2022-09-01T07:58:46;6.23;;;3.97;;
7377;SDS011;3730;50.856;12.776;2022-09-01T08:01:14;4.07;;;2.80;;
7377;SDS011;3730;50.856;12.776;2022-09-01T08:03:42;8.53;;;4.17;;
7377;SDS011;3730;50.856;12.776;2022-09-01T08:06:10;4.87;;;4.00;;
7377;SDS011;3730;50.856;12.776;2022-09-01T08:08:37;5.00;;;4.50;;
7377;SDS011;3730;50.856;12.776;2022-09-01T08:11:04;7.60;;;5.20;;
7377;SDS011;3730;50.856;12.776;2022-09-01T08:13:31;5.10;;;4.60;;
7377;SDS011;3730;50.856;12.776;2022-09-01T08:15:57;5.60;;;4.20;;
7377;SDS011;3730;50.856;12.776;2022-09-01T08:18:23;4.77;;;4.37;;
7377;SDS011;3730;50.856;12.776;2022-09-01T08:20:49;5.53;;;4.40;;
7377;SDS011;3730;50.856;12.776;2022-09-01T08:25:49;6.37;;;4.87;;
7377;SDS011;3730;50.856;12.776;2022-09-01T08:28:15;6.73;;;5.00;;
7377;SDS011;3730;50.856;12.776;2022-09-01T08:30:41;5.97;;;4.70;;
7377;SDS011;3730;50.856;12.776;2022-09-01T08:33:08;8.60;;;5.07;;
7377;SDS011;3730;50.856;12.776;2022-09-01T08:35:46;5.47;;;4.67;;
7377;SDS011;3730;50.856;12.776;2022-09-01T08:38:12;6.37;;;4.40;;
7377;SDS011;3730;50.856;12.776;2022-09-01T08:40:39;5.23;;;4.43;;
7377;SDS011;3730;50.856;12.776;2022-09-01T08:45:51;5.40;;;4.93;;
7377;SDS011;3730;50.856;12.776;2022-09-01T08:48:23;4.30;;;3.90;;
7377;SDS011;3730;50.856;12.776;2022-09-01T08:50:58;5.40;;;4.50;;
7377;SDS011;3730;50.856;12.776;2022-09-01T08:53:27;4.87;;;4.40;;
7377;SDS011;3730;50.856;12.776;2022-09-01T08:55:56;6.83;;;4.30;;
7377;SDS011;3730;50.856;12.776;2022-09-01T08:58:23;6.53;;;4.33;;
7377;SDS011;3730;50.856;12.776;2022-09-01T09:00:53;4.63;;;4.23;;
7377;SDS011;3730;50.856;12.776;2022-09-01T09:06:12;4.50;;;4.10;;
7377;SDS011;3730;50.856;12.776;2022-09-01T09:16:24;4.20;;;3.10;;
7377;SDS011;3730;50.856;12.776;2022-09-01T09:21:26;3.07;;;2.73;;
7377;SDS011;3730;50.856;12.776;2022-09-01T09:23:55;2.30;;;2.10;;
7377;SDS011;3730;50.856;12.776;2022-09-01T09:26:23;3.73;;;2.40;;
7377;SDS011;3730;50.856;12.776;2022-09-01T09:28:49;6.83;;;2.63;;
7377;SDS011;3730;50.856;12.776;2022-09-01T09:31:35;7.63;;;2.53;;
7377;SDS011;3730;50.856;12.776;2022-09-01T09:34:14;5.20;;;2.40;;
7377;SDS011;3730;50.856;12.776;2022-09-01T09:36:41;2.27;;;1.93;;
7377;SDS011;3730;50.856;12.776;2022-09-01T09:39:10;2.17;;;1.87;;
7377;SDS011;3730;50.856;12.776;2022-09-01T09:41:37;2.47;;;1.80;;
7377;SDS011;3730;50.856;12.776;2022-09-01T09:51:39;4.70;;;2.13;;
7377;SDS011;3730;50.856;12.776;2022-09-01T09:54:17;2.27;;;1.60;;
7377;SDS011;3730;50.856;12.776;2022-09-01T09:56:43;2.00;;;1.50;;
7377;SDS011;3730;50.856;12.776;2022-09-01T09:59:23;3.50;;;1.60;;
7377;SDS011;3730;50.856;12.776;2022-09-01T10:01:54;3.30;;;1.70;;
7377;SDS011;3730;50.856;12.776;2022-09-01T10:04:37;1.80;;;1.43;;
7377;SDS011;3730;50.856;12.776;2022-09-01T10:09:48;1.70;;;1.60;;
7377;SDS011;3730;50.856;12.776;2022-09-01T10:12:15;5.20;;;4.23;;
7377;SDS011;3730;50.856;12.776;2022-09-01T10:14:44;1.93;;;1.70;;
7377;SDS011;3730;50.856;12.776;2022-09-01T10:17:13;3.27;;;1.90;;
7377;SDS011;3730;50.856;12.776;2022-09-01T10:19:47;4.17;;;1.97;;
7377;SDS011;3730;50.856;12.776;2022-09-01T10:22:14;4.93;;;1.50;;
7377;SDS011;3730;50.856;12.776;2022-09-01T10:24:40;2.40;;;1.70;;
7377;SDS011;3730;50.856;12.776;2022-09-01T10:27:07;1.77;;;1.50;;
7377;SDS011;3730;50.856;12.776;2022-09-01T10:32:01;2.20;;;1.70;;
7377;SDS011;3730;50.856;12.776;2022-09-01T10:34:33;3.47;;;1.50;;
7377;SDS011;3730;50.856;12.776;2022-09-01T10:37:00;2.00;;;1.17;;
7377;SDS011;3730;50.856;12.776;2022-09-01T10:39:26;4.40;;;1.53;;
7377;SDS011;3730;50.856;12.776;2022-09-01T10:41:56;4.60;;;2.07;;
7377;SDS011;3730;50.856;12.776;2022-09-01T10:44:35;1.90;;;1.30;;
7377;SDS011;3730;50.856;12.776;2022-09-01T10:47:10;3.23;;;1.40;;
7377;SDS011;3730;50.856;12.776;2022-09-01T10:52:11;2.27;;;1.47;;
7377;SDS011;3730;50.856;12.776;2022-09-01T10:54:58;2.23;;;1.50;;
7377;SDS011;3730;50.856;12.776;2022-09-01T11:00:14;2.47;;;1.30;;
7377;SDS011;3730;50.856;12.776;2022-09-01T11:11:00;2.17;;;1.30;;
7377;SDS011;3730;50.856;12.776;2022-09-01T11:16:26;2.93;;;1.27;;
7377;SDS011;3730;50.856;12.776;2022-09-01T11:22:08;3.53;;;1.23;;
7377;SDS011;3730;50.856;12.776;2022-09-01T11:27:11;3.97;;;0.97;;
7377;SDS011;3730;50.856;12.776;2022-09-01T11:29:58;3.77;;;1.20;;
7377;SDS011;3730;50.856;12.776;2022-09-01T11:32:31;3.53;;;1.43;;
7377;SDS011;3730;50.856;12.776;2022-09-01T11:35:00;1.20;;;1.10;;
7377;SDS011;3730;50.856;12.776;2022-09-01T11:37:29;4.33;;;1.30;;
7377;SDS011;3730;50.856;12.776;2022-09-01T11:39:57;1.00;;;0.90;;
7377;SDS011;3730;50.856;12.776;2022-09-01T11:45:13;3.43;;;1.20;;
7377;SDS011;3730;50.856;12.776;2022-09-01T11:47:46;2.23;;;1.20;;
7377;SDS011;3730;50.856;12.776;2022-09-01T11:50:55;3.20;;;1.63;;
7377;SDS011;3730;50.856;12.776;2022-09-01T11:53:23;2.37;;;1.73;;
7377;SDS011;3730;50.856;12.776;2022-09-01T11:55:51;1.70;;;1.23;;
7377;SDS011;3730;50.856;12.776;2022-09-01T12:03:45;2.57;;;1.27;;
7377;SDS011;3730;50.856;12.776;2022-09-01T12:06:17;1.17;;;1.07;;
7377;SDS011;3730;50.856;12.776;2022-09-01T12:08:51;2.10;;;1.40;;
7377;SDS011;3730;50.856;12.776;2022-09-01T12:14:02;5.80;;;2.50;;
7377;SDS011;3730;50.856;12.776;2022-09-01T12:16:29;7.17;;;3.67;;
7377;SDS011;3730;50.856;12.776;2022-09-01T12:18:57;5.97;;;2.87;;
7377;SDS011;3730;50.856;12.776;2022-09-01T12:21:27;7.90;;;4.23;;
7377;SDS011;3730;50.856;12.776;2022-09-01T12:24:09;2.70;;;1.50;;
7377;SDS011;3730;50.856;12.776;2022-09-01T12:26:35;3.60;;;1.20;;
7377;SDS011;3730;50.856;12.776;2022-09-01T12:29:01;4.47;;;1.50;;
7377;SDS011;3730;50.856;12.776;2022-09-01T12:31:28;1.30;;;1.20;;
7377;SDS011;3730;50.856;12.776;2022-09-01T12:33:55;1.40;;;1.30;;
7377;SDS011;3730;50.856;12.776;2022-09-01T12:36:34;3.37;;;1.30;;
7377;SDS011;3730;50.856;12.776;2022-09-01T12:41:45;1.17;;;1.07;;
7377;SDS011;3730;50.856;12.776;2022-09-01T12:44:28;1.87;;;1.10;;
7377;SDS011;3730;50.856;12.776;2022-09-01T12:46:55;2.03;;;1.00;;
7377;SDS011;3730;50.856;12.776;2022-09-01T12:49:23;1.30;;;0.97;;
7377;SDS011;3730;50.856;12.776;2022-09-01T12:52:04;1.53;;;1.10;;
7377;SDS011;3730;50.856;12.776;2022-09-01T12:54:30;1.10;;;1.00;;
7377;SDS011;3730;50.856;12.776;2022-09-01T12:56:56;3.77;;;1.33;;
7377;SDS011;3730;50.856;12.776;2022-09-01T12:59:24;1.67;;;0.97;;
7377;SDS011;3730;50.856;12.776;2022-09-01T13:01:50;1.87;;;0.90;;
7377;SDS011;3730;50.856;12.776;2022-09-01T13:06:45;3.10;;;1.10;;
7377;SDS011;3730;50.856;12.776;2022-09-01T13:09:11;2.33;;;0.93;;
7377;SDS011;3730;50.856;12.776;2022-09-01T13:11:37;1.37;;;1.00;;
7377;SDS011;3730;50.856;12.776;2022-09-01T13:14:02;0.97;;;0.90;;
7377;SDS011;3730;50.856;12.776;2022-09-01T13:16:28;4.87;;;1.20;;
7377;SDS011;3730;50.856;12.776;2022-09-01T13:18:54;0.93;;;0.93;;
7377;SDS011;3730;50.856;12.776;2022-09-01T13:21:20;1.97;;;1.10;;
7377;SDS011;3730;50.856;12.776;2022-09-01T13:23:47;3.87;;;0.77;;
7377;SDS011;3730;50.856;12.776;2022-09-01T13:26:14;1.47;;;1.10;;
7377;SDS011;3730;50.856;12.776;2022-09-01T13:28:40;1.20;;;1.10;;
7377;SDS011;3730;50.856;12.776;2022-09-01T13:31:06;1.33;;;1.10;;
7377;SDS011;3730;50.856;12.776;2022-09-01T13:33:33;2.63;;;0.80;;
7377;SDS011;3730;50.856;12.776;2022-09-01T13:36:00;3.87;;;1.30;;
7377;SDS011;3730;50.856;12.776;2022-09-01T13:38:26;1.23;;;0.90;;
7377;SDS011;3730;50.856;12.776;2022-09-01T13:40:52;1.00;;;0.83;;
7377;SDS011;3730;50.856;12.776;2022-09-01T13:43:19;1.87;;;1.20;;
7377;SDS011;3730;50.856;12.776;2022-09-01T13:45:46;1.50;;;1.10;;
7377;SDS011;3730;50.856;12.776;2022-09-01T13:48:12;2.10;;;0.90;;
7377;SDS011;3730;50.856;12.776;2022-09-01T13:50:38;4.00;;;1.30;;
7377;SDS011;3730;50.856;12.776;2022-09-01T13:53:04;3.60;;;1.40;;
7377;SDS011;3730;50.856;12.776;2022-09-01T13:55:33;1.75;;;1.30;;
7377;SDS011;3730;50.856;12.776;2022-09-01T13:58:02;2.92;;;1.25;;
7377;SDS011;3730;50.856;12.776;2022-09-01T14:00:32;2.33;;;0.98;;
7377;SDS011;3730;50.856;12.776;2022-09-01T14:03:07;1.80;;;1.10;;
7377;SDS011;3730;50.856;12.776;2022-09-01T14:05:36;4.20;;;1.23;;
7377;SDS011;3730;50.856;12.776;2022-09-01T14:08:05;3.17;;;1.20;;
7377;SDS011;3730;50.856;12.776;2022-09-01T14:10:32;2.95;;;1.40;;
7377;SDS011;3730;50.856;12.776;2022-09-01T14:13:06;3.85;;;1.30;;
7377;SDS011;3730;50.856;12.776;2022-09-01T14:15:34;2.45;;;1.20;;
7377;SDS011;3730;50.856;12.776;2022-09-01T14:18:00;1.02;;;1.00;;
7377;SDS011;3730;50.856;12.776;2022-09-01T14:20:28;1.50;;;1.27;;
7377;SDS011;3730;50.856;12.776;2022-09-01T14:22:56;1.23;;;1.10;;
7377;SDS011;3730;50.856;12.776;2022-09-01T14:25:22;1.15;;;1.00;;
7377;SDS011;3730;50.856;12.776;2022-09-01T14:27:49;4.53;;;1.70;;
7377;SDS011;3730;50.856;12.776;2022-09-01T14:30:17;1.27;;;1.17;;
7377;SDS011;3730;50.856;12.776;2022-09-01T14:32:44;3.05;;;1.27;;
7377;SDS011;3730;50.856;12.776;2022-09-01T14:35:11;1.35;;;1.02;;
7377;SDS011;3730;50.856;12.776;2022-09-01T14:37:38;1.60;;;1.15;;
7377;SDS011;3730;50.856;12.776;2022-09-01T14:40:04;1.17;;;1.10;;
7377;SDS011;3730;50.856;12.776;2022-09-01T14:42:31;1.20;;;0.75;;
7377;SDS011;3730;50.856;12.776;2022-09-01T14:44:57;5.63;;;1.23;;
7377;SDS011;3730;50.856;12.776;2022-09-01T14:47:26;3.47;;;1.08;;
7377;SDS011;3730;50.856;12.776;2022-09-01T14:49:52;1.52;;;1.00;;
7377;SDS011;3730;50.856;12.776;2022-09-01T14:52:18;1.35;;;0.90;;
7377;SDS011;3730;50.856;12.776;2022-09-01T14:54:45;2.30;;;0.80;;
7377;SDS011;3730;50.856;12.776;2022-09-01T14:57:12;3.17;;;1.00;;
7377;SDS011;3730;50.856;12.776;2022-09-01T14:59:38;0.90;;;0.90;;
7377;SDS011;3730;50.856;12.776;2022-09-01T15:02:05;1.77;;;0.90;;
7377;SDS011;3730;50.856;12.776;2022-09-01T15:04:32;3.00;;;1.05;;
7377;SDS011;3730;50.856;12.776;2022-09-01T15:06:58;0.80;;;0.80;;
7377;SDS011;3730;50.856;12.776;2022-09-01T15:09:24;4.05;;;1.23;;
7377;SDS011;3730;50.856;12.776;2022-09-01T15:11:50;2.78;;;0.90;;
7377;SDS011;3730;50.856;12.776;2022-09-01T15:14:16;1.42;;;1.25;;
7377;SDS011;3730;50.856;12.776;2022-09-01T15:16:42;4.00;;;1.10;;
7377;SDS011;3730;50.856;12.776;2022-09-01T15:19:11;2.50;;;1.08;;
7377;SDS011;3730;50.856;12.776;2022-09-01T15:21:38;6.07;;;1.40;;
7377;SDS011;3730;50.856;12.776;2022-09-01T15:24:05;1.80;;;1.40;;
7377;SDS011;3730;50.856;12.776;2022-09-01T15:26:31;6.32;;;1.40;;
7377;SDS011;3730;50.856;12.776;2022-09-01T15:28:58;6.72;;;1.50;;
7377;SDS011;3730;50.856;12.776;2022-09-01T15:31:26;3.85;;;1.30;;
7377;SDS011;3730;50.856;12.776;2022-09-01T15:33:55;2.88;;;1.10;;
7377;SDS011;3730;50.856;12.776;2022-09-01T15:36:21;2.58;;;1.20;;
7377;SDS011;3730;50.856;12.776;2022-09-01T15:38:49;1.55;;;1.40;;
7377;SDS011;3730;50.856;12.776;2022-09-01T15:41:16;3.90;;;1.50;;
7377;SDS011;3730;50.856;12.776;2022-09-01T15:43:42;2.53;;;1.50;;
7377;SDS011;3730;50.856;12.776;2022-09-01T15:46:08;3.20;;;1.50;;
7377;SDS011;3730;50.856;12.776;2022-09-01T15:48:36;3.70;;;1.60;;
7377;SDS011;3730;50.856;12.776;2022-09-01T15:51:25;2.80;;;1.35;;
7377;SDS011;3730;50.856;12.776;2022-09-01T15:53:55;2.05;;;1.30;;
7377;SDS011;3730;50.856;12.776;2022-09-01T15:56:24;4.78;;;1.73;;
7377;SDS011;3730;50.856;12.776;2022-09-01T15:58:50;2.38;;;1.25;;
7377;SDS011;3730;50.856;12.776;2022-09-01T16:01:16;2.20;;;1.52;;
7377;SDS011;3730;50.856;12.776;2022-09-01T16:03:43;2.42;;;1.27;;
7377;SDS011;3730;50.856;12.776;2022-09-01T16:06:08;5.60;;;1.58;;
7377;SDS011;3730;50.856;12.776;2022-09-01T16:08:35;5.35;;;1.67;;
7377;SDS011;3730;50.856;12.776;2022-09-01T16:11:04;1.30;;;1.20;;
7377;SDS011;3730;50.856;12.776;2022-09-01T16:13:34;2.65;;;1.45;;
7377;SDS011;3730;50.856;12.776;2022-09-01T16:19:04;5.35;;;1.42;;
7377;SDS011;3730;50.856;12.776;2022-09-01T16:21:39;3.35;;;1.10;;
7377;SDS011;3730;50.856;12.776;2022-09-01T16:24:17;2.35;;;1.30;;
7377;SDS011;3730;50.856;12.776;2022-09-01T16:26:44;4.53;;;1.42;;